Time;durP1;ratioP1;P1;durP2;ratioP2;P2;SDS_P1;SDS_P2;PMS_P1;PMS_P2;Temp;Humidity;BMP_temperature;BMP_pressure;BME280_temperature;BME280_humidity;BME280_pressure;Samples;Min_cycle;Max_cycle;Signal;HPM_P1;HPM_P2
2021/04/15 00:00:47;;;;;;;8.77;4.28;;;;;;;-4.75;90.12;99469.19;5023409;28;20037;-71
2021/04/15 00:03:18;;;;;;;6.95;4.50;;;;;;;-4.66;90.01;99488.22;5018100;28;20034;-71
2021/04/15 00:05:44;;;;;;;7.78;4.55;;;;;;;-4.75;90.45;99487.03;5010969;28;20029;-71
2021/04/15 00:08:10;;;;;;;13.23;7.20;;;;;;;-4.85;90.10;99480.72;5023706;28;20029;-71
2021/04/15 00:10:38;;;;;;;9.93;6.88;;;;;;;-4.84;90.04;99486.69;5022359;28;20041;-70
2021/04/15 00:13:28;;;;;;;12.32;6.55;;;;;;;-4.96;90.55;99476.88;5027806;28;20104;-69
2021/04/15 00:15:54;;;;;;;6.90;4.88;;;;;;;-4.94;90.90;99465.06;5023504;28;20041;-71
2021/04/15 00:18:20;;;;;;;7.07;4.53;;;;;;;-4.87;90.49;99476.34;5026340;28;20411;-70
2021/04/15 00:20:45;;;;;;;8.20;5.03;;;;;;;-4.87;91.05;99484.88;5025044;28;20033;-70
2021/04/15 00:23:11;;;;;;;5.65;4.22;;;;;;;-4.94;90.81;99476.94;5021813;28;20026;-70
2021/04/15 00:25:36;;;;;;;7.95;4.40;;;;;;;-5.03;90.55;99460.47;5011152;28;20099;-70
2021/04/15 00:28:02;;;;;;;7.80;5.05;;;;;;;-4.93;91.18;99448.97;5019301;28;20509;-71
2021/04/15 00:30:28;;;;;;;5.55;3.88;;;;;;;-4.92;90.43;99477.88;5025064;28;20026;-70
2021/04/15 00:32:53;;;;;;;6.68;4.22;;;;;;;-4.91;90.55;99464.31;5028013;28;20030;-70
2021/04/15 00:35:20;;;;;;;6.15;3.90;;;;;;;-4.92;91.14;99465.13;5023757;28;20025;-69
2021/04/15 00:37:46;;;;;;;5.38;3.78;;;;;;;-5.05;90.88;99468.91;5012085;28;20037;-71
2021/04/15 00:40:13;;;;;;;7.97;3.95;;;;;;;-5.07;90.85;99467.97;5013248;28;20030;-69
2021/04/15 00:42:39;;;;;;;5.15;3.35;;;;;;;-5.17;90.67;99460.78;5020330;28;20052;-71
2021/04/15 00:45:06;;;;;;;4.68;3.33;;;;;;;-5.22;90.35;99452.09;5028907;28;20088;-71
2021/04/15 00:47:33;;;;;;;3.78;3.05;;;;;;;-5.31;90.75;99448.38;5031005;28;20479;-71
2021/04/15 00:50:01;;;;;;;5.00;2.95;;;;;;;-5.26;90.87;99457.88;5031662;28;20148;-70
2021/04/15 00:52:33;;;;;;;4.95;3.58;;;;;;;-5.32;91.02;99456.81;5029765;28;20046;-70
2021/04/15 00:55:03;;;;;;;5.25;3.13;;;;;;;-5.38;90.61;99458.28;5013750;28;20061;-71
2021/04/15 00:57:32;;;;;;;4.18;3.15;;;;;;;-5.34;91.06;99458.44;5013953;28;20487;-70
2021/04/15 00:59:58;;;;;;;8.02;3.60;;;;;;;-5.32;91.12;99454.28;5017019;28;20029;-71
2021/04/15 01:02:25;;;;;;;6.32;3.78;;;;;;;-5.43;91.50;99437.72;5029666;28;20083;-70
2021/04/15 01:04:56;;;;;;;5.57;3.35;;;;;;;-5.41;90.46;99458.16;5031741;28;20553;-70
2021/04/15 01:07:23;;;;;;;6.00;3.50;;;;;;;-5.44;90.71;99455.47;5015517;28;20037;-71
2021/04/15 01:09:50;;;;;;;5.43;3.72;;;;;;;-5.38;91.05;99448.97;5023677;28;20036;-70
2021/04/15 01:12:53;;;;;;;5.95;3.83;;;;;;;-5.35;90.87;99446.50;5016419;28;20129;-70
2021/04/15 01:15:52;;;;;;;8.45;3.60;;;;;;;-5.25;91.33;99445.19;5022146;28;20056;-70
2021/04/15 01:18:42;;;;;;;5.90;3.92;;;;;;;-5.16;91.20;99437.88;5030451;28;20044;-70
2021/04/15 01:21:30;;;;;;;12.00;4.05;;;;;;;-5.23;90.97;99438.47;5015694;28;20040;-70
2021/04/15 01:24:07;;;;;;;4.57;3.40;;;;;;;-5.25;90.24;99442.66;5018627;28;20034;-71
2021/04/15 01:26:52;;;;;;;4.85;3.03;;;;;;;-5.37;90.94;99445.59;5025811;28;20402;-71
2021/04/15 01:29:36;;;;;;;3.55;2.47;;;;;;;-5.46;90.40;99445.22;5017096;28;20124;-70
2021/04/15 01:32:29;;;;;;;3.47;2.80;;;;;;;-5.48;90.41;99445.97;5029635;28;20064;-70
2021/04/15 01:35:01;;;;;;;3.10;2.47;;;;;;;-5.40;90.74;99442.94;5027231;28;20033;-72
2021/04/15 01:37:50;;;;;;;4.22;2.85;;;;;;;-5.51;90.33;99445.88;5027418;28;20131;-71
2021/04/15 01:40:22;;;;;;;5.05;3.17;;;;;;;-5.50;91.00;99447.63;5029146;28;20104;-71
2021/04/15 01:43:20;;;;;;;5.13;3.30;;;;;;;-5.50;90.97;99443.38;5024569;28;20033;-71
2021/04/15 01:45:49;;;;;;;3.75;2.67;;;;;;;-5.56;91.17;99453.34;5020622;28;20029;-72
2021/04/15 01:48:24;;;;;;;5.72;3.38;;;;;;;-5.53;90.93;99450.91;5030881;28;20486;-71
2021/04/15 01:51:19;;;;;;;4.28;3.08;;;;;;;-5.52;90.96;99444.13;5031027;28;20044;-71
2021/04/15 01:53:51;;;;;;;5.10;3.55;;;;;;;-5.52;91.07;99449.22;5031481;28;20095;-70
2021/04/15 01:56:24;;;;;;;5.97;3.50;;;;;;;-5.62;90.31;99435.25;5022256;28;20033;-72
2021/04/15 01:58:58;;;;;;;5.65;3.58;;;;;;;-5.55;90.60;99444.00;5011916;28;20037;-70
2021/04/15 02:01:25;;;;;;;4.43;3.15;;;;;;;-5.49;90.52;99454.44;5024909;28;20029;-71
2021/04/15 02:03:55;;;;;;;4.07;2.88;;;;;;;-5.54;90.73;99456.81;5030578;28;20033;-71
2021/04/15 02:06:27;;;;;;;4.63;2.80;;;;;;;-5.56;90.46;99452.47;5030126;28;20039;-72
2021/04/15 02:08:59;;;;;;;3.28;2.47;;;;;;;-5.57;90.90;99456.69;5031179;28;20083;-71
2021/04/15 02:12:01;;;;;;;3.95;2.78;;;;;;;-5.56;91.24;99455.00;5028306;28;20026;-70
2021/04/15 02:14:29;;;;;;;4.32;3.03;;;;;;;-5.54;90.73;99455.94;5019556;28;20120;-71
2021/04/15 02:16:59;;;;;;;5.70;3.78;;;;;;;-5.62;90.76;99436.91;5010864;28;20021;-71
2021/04/15 02:19:29;;;;;;;4.00;2.88;;;;;;;-5.57;90.80;99456.69;5021439;28;20032;-70
2021/04/15 02:22:10;;;;;;;4.40;2.90;;;;;;;-5.70;90.78;99454.47;5031384;28;20025;-71
2021/04/15 02:24:51;;;;;;;3.72;2.70;;;;;;;-5.83;90.43;99444.59;5019200;28;20040;-70
2021/04/15 02:27:28;;;;;;;4.25;2.90;;;;;;;-5.83;90.29;99449.69;5023827;28;20037;-69
2021/04/15 02:29:58;;;;;;;3.90;2.63;;;;;;;-5.81;90.89;99460.81;5011565;28;20029;-69
2021/04/15 02:32:35;;;;;;;4.57;2.85;;;;;;;-5.84;91.35;99461.56;5016547;28;20037;-70
2021/04/15 02:35:06;;;;;;;;;;;;;;;-5.93;90.26;99455.22;5031927;28;20049;-70
2021/04/15 02:37:40;;;;;;;3.65;2.60;;;;;;;-5.92;90.87;99457.84;5027727;28;19913;-70
2021/04/15 02:40:15;;;;;;;3.42;2.40;;;;;;;-5.99;90.96;99452.44;5029999;28;20029;-71
2021/04/15 02:42:43;;;;;;;4.25;3.10;;;;;;;-5.99;90.99;99458.41;5029366;28;20033;-69
2021/04/15 02:45:22;;;;;;;4.32;2.65;;;;;;;-5.98;90.19;99451.66;5024942;28;20040;-70
2021/04/15 02:47:54;;;;;;;6.65;3.80;;;;;;;-5.93;91.00;99451.00;5024298;28;20083;-71
2021/04/15 02:50:22;;;;;;;4.97;3.75;;;;;;;-5.93;90.94;99455.22;5018885;28;20082;-71
2021/04/15 02:52:54;;;;;;;6.78;3.38;;;;;;;-5.89;91.07;99442.69;5028033;28;20479;-70
2021/04/15 02:55:24;;;;;;;3.33;2.63;;;;;;;-5.93;90.96;99450.13;5028919;28;20025;-70
2021/04/15 02:57:58;;;;;;;5.45;3.00;;;;;;;-6.03;90.34;99449.78;5018700;28;20040;-70
2021/04/15 03:00:33;;;;;;;5.50;3.30;;;;;;;-5.94;90.96;99456.03;5012567;28;20479;-70
2021/04/15 03:03:03;;;;;;;3.85;2.92;;;;;;;-6.06;90.73;99448.78;5027837;28;20553;-70
2021/04/15 03:05:33;;;;;;;3.72;2.78;;;;;;;-6.18;90.29;99438.97;5020690;28;20522;-70
2021/04/15 03:08:01;;;;;;;4.75;3.10;;;;;;;-6.12;90.50;99448.53;5024678;28;20042;-70
2021/04/15 03:10:40;;;;;;;4.10;2.63;;;;;;;-6.27;90.66;99437.72;5009297;28;20030;-70
2021/04/15 03:13:13;;;;;;;7.45;3.38;;;;;;;-6.12;90.84;99449.41;5027953;28;20060;-71
2021/04/15 03:15:44;;;;;;;4.50;3.25;;;;;;;-6.19;90.25;99447.41;5027129;28;20316;-71
2021/04/15 03:18:24;;;;;;;7.07;2.95;;;;;;;-6.18;90.90;99444.03;5027627;28;20060;-71
2021/04/15 03:21:14;;;;;;;5.00;3.42;;;;;;;-6.18;90.95;99449.13;5018073;28;20027;-71
2021/04/15 03:23:46;;;;;;;5.15;3.33;;;;;;;-6.24;90.73;99435.28;5027548;28;20467;-70
2021/04/15 03:26:23;;;;;;;6.22;4.78;;;;;;;-6.10;90.58;99455.41;5029951;28;20033;-70
2021/04/15 03:29:19;;;;;;;8.20;4.38;;;;;;;-6.10;91.24;99462.16;5021739;28;20104;-69
2021/04/15 03:31:56;;;;;;;5.63;4.25;;;;;;;-6.10;90.94;99457.94;5024004;28;20081;-71
2021/04/15 03:34:31;;;;;;;5.90;3.88;;;;;;;-6.17;90.51;99457.63;5018798;28;20033;-70
2021/04/15 03:36:58;;;;;;;4.93;3.10;;;;;;;-6.39;90.58;99446.53;5029160;28;20025;-71
2021/04/15 03:39:31;;;;;;;5.70;3.65;;;;;;;-6.29;90.79;99464.75;5017498;28;20029;-71
2021/04/15 03:42:01;;;;;;;5.97;3.92;;;;;;;-6.32;91.23;99462.97;5033122;28;20033;-71
2021/04/15 03:44:43;;;;;;;6.65;3.95;;;;;;;-6.33;90.68;99457.78;5036445;28;20025;-71
2021/04/15 03:47:15;;;;;;;5.80;3.63;;;;;;;-6.46;90.99;99451.31;5023833;28;20145;-71
2021/04/15 03:50:08;;;;;;;4.85;3.20;;;;;;;-6.46;90.70;99462.38;5018161;28;20099;-71
2021/04/15 03:52:45;;;;;;;6.78;3.22;;;;;;;-6.48;90.59;99452.94;5029922;28;20108;-70
2021/04/15 03:55:28;;;;;;;5.15;3.40;;;;;;;-6.44;91.02;99464.97;5029056;28;20443;-70
2021/04/15 03:58:01;;;;;;;4.65;3.53;;;;;;;-6.35;90.86;99467.03;5026518;28;20029;-70
2021/04/15 04:00:33;;;;;;;7.88;3.95;;;;;;;-6.40;91.07;99451.56;5026361;28;20029;-70
2021/04/15 04:03:10;;;;;;;6.03;3.90;;;;;;;-6.36;91.03;99465.28;5016496;28;20112;-70
2021/04/15 04:05:43;;;;;;;5.10;3.55;;;;;;;-6.45;91.20;99453.94;5018624;28;20802;-70
2021/04/15 04:08:28;;;;;;;7.05;3.90;;;;;;;-6.22;91.68;99467.63;5032604;28;20029;-69
2021/04/15 04:10:55;;;;;;;6.93;4.55;;;;;;;-6.27;91.24;99458.06;5031619;28;20400;-70
2021/04/15 04:13:35;;;;;;;5.80;3.95;;;;;;;-6.38;91.14;99462.69;5030800;28;20061;-69
2021/04/15 04:16:11;;;;;;;5.18;3.42;;;;;;;-6.45;91.43;99456.47;5013909;28;20026;-70
2021/04/15 04:19:15;;;;;;;6.70;3.90;;;;;;;-6.42;91.06;99468.47;5031961;28;20029;-70
2021/04/15 04:21:50;;;;;;;4.80;3.35;;;;;;;-6.48;91.07;99473.28;5013715;28;20080;-70
2021/04/15 04:24:21;;;;;;;4.97;3.28;;;;;;;-6.51;91.22;99473.13;5017471;28;20380;-70
2021/04/15 04:26:55;;;;;;;7.72;4.57;;;;;;;-6.40;90.88;99482.09;5034117;28;20029;-70
2021/04/15 04:29:29;;;;;;;10.07;5.53;;;;;;;-6.28;90.93;99479.22;5036571;28;20071;-70
2021/04/15 04:31:59;;;;;;;7.70;3.78;;;;;;;-6.23;90.91;99476.06;5036103;28;20121;-69
2021/04/15 04:34:26;;;;;;;10.65;5.13;;;;;;;-6.20;90.92;99481.28;5030478;28;20029;-69
2021/04/15 04:36:53;;;;;;;7.43;4.55;;;;;;;-6.08;91.03;99475.84;5031662;28;20021;-69
2021/04/15 04:39:21;;;;;;;7.90;4.90;;;;;;;-6.08;90.81;99478.38;5015052;28;20165;-69
2021/04/15 04:41:47;;;;;;;;;;;;;;;-6.10;90.12;99477.44;5027691;28;20383;-69
2021/04/15 04:44:28;;;;;;;5.28;4.13;;;;;;;-6.28;90.53;99472.47;5029549;28;19917;-70
2021/04/15 04:47:20;;;;;;;6.13;3.88;;;;;;;-6.22;90.53;99482.03;5028420;28;20021;-69
2021/04/15 04:49:55;;;;;;;9.05;4.78;;;;;;;-6.26;90.21;99485.25;5014670;28;20029;-70
2021/04/15 04:52:27;;;;;;;8.73;5.15;;;;;;;-6.27;90.65;99471.66;5025760;28;20049;-70
2021/04/15 04:54:53;;;;;;;8.50;4.80;;;;;;;-6.33;90.43;99475.59;5024152;28;20026;-70
2021/04/15 04:57:40;;;;;;;8.60;5.10;;;;;;;-6.17;90.43;99490.72;5013179;28;20029;-70
2021/04/15 05:00:08;;;;;;;5.82;4.18;;;;;;;-6.16;90.33;99488.25;5034521;28;20132;-70
2021/04/15 05:02:34;;;;;;;9.75;4.60;;;;;;;-6.22;89.68;99490.53;5015268;28;20029;-70
2021/04/15 05:05:11;;;;;;;6.18;4.22;;;;;;;-6.09;90.14;99485.16;5028165;28;20510;-69
2021/04/15 05:07:37;;;;;;;;;;;;;;;-5.98;89.97;99493.25;5032412;28;20104;-69
2021/04/15 05:10:04;;;;;;;4.78;3.40;;;;;;;-5.88;89.75;99491.94;5018671;28;20021;-69
2021/04/15 05:12:34;;;;;;;5.57;4.18;;;;;;;-5.75;89.56;99474.66;5016605;28;20060;-69
2021/04/15 05:15:01;;;;;;;9.20;4.53;;;;;;;-5.52;89.43;99492.56;5031001;28;20068;-70
2021/04/15 05:17:31;;;;;;;6.18;4.10;;;;;;;-5.41;89.09;99494.72;5031074;28;20021;-71
2021/04/15 05:20:00;;;;;;;8.45;3.83;;;;;;;-5.25;88.88;99491.09;5019205;28;20030;-70
2021/04/15 05:22:31;;;;;;;5.85;4.00;;;;;;;-5.04;89.01;99489.34;5027818;28;20025;-70
2021/04/15 05:25:02;;;;;;;10.45;5.85;;;;;;;-4.82;88.69;99480.81;5029988;28;20537;-71
2021/04/15 05:27:30;;;;;;;8.85;6.03;;;;;;;-4.52;88.47;99482.75;5009455;28;20049;-71
2021/04/15 05:30:06;;;;;;;7.55;4.90;;;;;;;-4.19;87.23;99490.75;5021356;28;20064;-70
2021/04/15 05:32:32;;;;;;;7.55;5.50;;;;;;;-3.97;86.11;99494.06;5012511;28;20045;-71
2021/04/15 05:34:59;;;;;;;7.20;4.43;;;;;;;-3.81;85.85;99474.16;5012553;28;20034;-71
2021/04/15 05:37:28;;;;;;;14.27;6.97;;;;;;;-3.67;84.47;99476.38;5012437;28;20018;-71
2021/04/15 05:39:56;;;;;;;9.38;5.32;;;;;;;-3.49;83.73;99490.53;5011648;28;20053;-70
2021/04/15 05:42:45;;;;;;;10.15;5.35;;;;;;;-3.35;83.21;99495.28;5016803;28;20072;-70
2021/04/15 05:45:24;;;;;;;10.23;4.97;;;;;;;-3.25;83.07;99499.00;5025019;28;20068;-70
2021/04/15 05:47:55;;;;;;;13.75;5.45;;;;;;;-3.16;82.33;99498.41;5026925;28;20408;-70
2021/04/15 05:50:39;;;;;;;16.23;9.93;;;;;;;-3.14;82.30;99492.53;5030103;28;20042;-70
2021/04/15 05:53:18;;;;;;;15.48;7.00;;;;;;;-3.03;83.04;99488.59;5044360;28;20041;-70
2021/04/15 05:55:49;;;;;;;15.85;7.20;;;;;;;-2.92;82.13;99483.81;5043664;28;20025;-74
2021/04/15 05:58:25;;;;;;;14.45;7.78;;;;;;;-2.89;82.70;99477.09;5033067;28;20183;-73
2021/04/15 06:00:56;;;;;;;12.18;7.57;;;;;;;-2.78;82.47;99485.09;5021647;28;20026;-70
2021/04/15 06:03:45;;;;;;;13.98;7.18;;;;;;;-2.54;82.18;99490.91;5018582;28;20104;-69
2021/04/15 06:06:15;;;;;;;13.63;6.90;;;;;;;-2.40;81.76;99480.19;5026436;28;20518;-70
2021/04/15 06:08:43;;;;;;;11.10;6.57;;;;;;;-2.26;81.62;99487.41;5031491;28;20025;-70
2021/04/15 06:11:25;;;;;;;14.40;6.53;;;;;;;-2.05;81.64;99483.72;5030216;28;20041;-70
2021/04/15 06:13:57;;;;;;;12.45;5.90;;;;;;;-1.97;81.43;99475.38;5028995;28;20083;-70
2021/04/15 06:16:41;;;;;;;11.00;6.82;;;;;;;-1.73;80.81;99477.72;5031703;28;20378;-70
2021/04/15 06:19:20;;;;;;;10.05;6.80;;;;;;;-1.61;80.02;99480.59;5030677;28;20396;-70
2021/04/15 06:21:49;;;;;;;11.98;6.32;;;;;;;-1.44;79.93;99483.56;5031255;28;20493;-69
2021/04/15 06:24:29;;;;;;;11.75;6.95;;;;;;;-1.27;79.13;99491.66;5031477;28;20104;-70
2021/04/15 06:26:58;;;;;;;13.07;7.80;;;;;;;-1.19;78.36;99495.25;5031751;28;20029;-70
2021/04/15 06:29:29;;;;;;;10.82;6.60;;;;;;;-0.97;78.73;99488.94;5030434;28;20509;-69
2021/04/15 06:31:57;;;;;;;13.15;7.75;;;;;;;-0.83;78.03;99490.97;5031080;28;20045;-71
2021/04/15 06:34:23;;;;;;;;;;;;;;;-0.75;76.82;99491.13;5031580;28;20033;-69
2021/04/15 06:37:02;;;;;;;11.70;7.32;;;;;;;-0.64;76.98;99486.25;5031553;28;19920;-70
2021/04/15 06:39:33;;;;;;;18.15;8.10;;;;;;;-0.45;77.18;99480.63;5031170;28;20108;-70
2021/04/15 06:42:16;;;;;;;19.35;9.15;;;;;;;-0.21;76.58;99487.97;5031151;28;20463;-70
2021/04/15 06:45:05;;;;;;;15.25;7.80;;;;;;;-0.16;75.62;99486.38;5029043;28;20542;-69
2021/04/15 06:47:45;;;;;;;16.13;8.43;;;;;;;0.09;76.62;99488.53;5030286;28;20029;-70
2021/04/15 06:50:32;;;;;;;14.95;7.65;;;;;;;0.24;75.26;99483.69;5029605;28;20380;-70
2021/04/15 06:53:35;;;;;;;12.85;8.13;;;;;;;0.48;75.99;99492.63;5030885;28;20533;-70
2021/04/15 06:56:20;;;;;;;13.20;8.05;;;;;;;0.71;74.33;99483.59;5026658;28;20033;-70
2021/04/15 06:59:00;;;;;;;11.50;7.18;;;;;;;0.87;73.96;99479.56;5049866;28;20029;-70
2021/04/15 07:02:10;;;;;;;15.63;6.97;;;;;;;1.12;73.67;99488.50;5050004;28;20158;-70
2021/04/15 07:04:53;;;;;;;11.55;6.63;;;;;;;1.22;73.98;99477.50;5027701;28;20029;-71
2021/04/15 07:07:26;;;;;;;11.70;6.90;;;;;;;1.44;74.28;99479.50;5049814;28;20041;-70
2021/04/15 07:10:12;;;;;;;8.50;6.18;;;;;;;1.63;72.24;99476.31;5050036;28;20493;-71
2021/04/15 07:12:59;;;;;;;10.50;7.10;;;;;;;1.73;72.67;99478.13;5018010;28;20061;-71
2021/04/15 07:15:40;;;;;;;12.27;6.57;;;;;;;1.91;71.56;99476.63;5023566;28;20037;-71
2021/04/15 07:18:30;;;;;;;13.52;6.13;;;;;;;2.26;73.11;99474.41;5024881;28;20029;-71
2021/04/15 07:21:15;;;;;;;10.40;6.15;;;;;;;2.31;69.50;99472.72;5015659;28;20029;-71
2021/04/15 07:24:17;;;;;;;10.88;6.30;;;;;;;2.44;69.67;99474.56;5028667;28;20033;-71
2021/04/15 07:27:02;;;;;;;9.52;5.85;;;;;;;2.71;69.16;99467.06;5030378;28;20485;-71
2021/04/15 07:29:41;;;;;;;10.07;5.32;;;;;;;2.97;70.17;99477.56;5029696;28;20501;-70
2021/04/15 07:32:31;;;;;;;8.70;4.97;;;;;;;3.14;68.18;99472.50;5029678;28;20040;-71
2021/04/15 07:35:21;;;;;;;8.43;4.90;;;;;;;3.43;68.15;99467.50;5030072;28;20029;-72
2021/04/15 07:38:08;;;;;;;6.82;4.45;;;;;;;3.53;65.16;99469.25;5028312;28;20494;-72
2021/04/15 07:40:48;;;;;;;7.40;4.85;;;;;;;3.81;67.14;99473.69;5016777;28;20037;-71
2021/04/15 07:43:22;;;;;;;7.05;4.50;;;;;;;3.95;62.28;99470.28;5013656;28;20033;-71
2021/04/15 07:46:18;;;;;;;8.30;4.80;;;;;;;3.86;61.74;99477.13;5022103;28;20037;-71
2021/04/15 07:49:18;;;;;;;8.63;4.22;;;;;;;4.08;60.50;99474.63;5018421;28;20108;-71
2021/04/15 07:52:02;;;;;;;7.05;4.55;;;;;;;4.17;60.95;99472.91;5025412;28;20033;-71
2021/04/15 07:54:45;;;;;;;8.63;4.32;;;;;;;4.38;60.67;99473.81;5025501;28;20028;-70
2021/04/15 07:57:17;;;;;;;6.35;4.53;;;;;;;4.40;60.03;99470.38;5033939;28;20025;-71
2021/04/15 08:00:17;;;;;;;8.10;4.47;;;;;;;4.71;59.39;99470.38;5023823;28;20051;-71
2021/04/15 08:03:08;;;;;;;6.65;4.32;;;;;;;4.90;58.44;99472.06;5025460;28;20033;-73
2021/04/15 08:05:56;;;;;;;9.65;4.70;;;;;;;4.96;57.95;99477.25;5025587;28;20026;-70
2021/04/15 08:08:40;;;;;;;;;;;;;;;5.38;56.59;99475.44;5026159;28;20773;-71
2021/04/15 08:11:30;;;;;;;10.38;4.30;;;;;;;5.61;55.20;99474.53;5009134;28;19913;-70
2021/04/15 08:14:07;;;;;;;9.13;4.60;;;;;;;5.82;54.59;99467.50;5027236;28;20376;-70
2021/04/15 08:16:50;;;;;;;10.45;5.07;;;;;;;5.65;54.94;99467.59;5018531;28;20029;-71
2021/04/15 08:19:23;;;;;;;5.57;4.13;;;;;;;5.42;55.51;99477.19;5025590;28;20034;-71
2021/04/15 08:22:04;;;;;;;6.13;3.92;;;;;;;5.74;54.27;99474.47;5023939;28;20026;-69
2021/04/15 08:25:07;;;;;;;7.20;4.25;;;;;;;5.89;53.10;99469.25;5024045;28;20406;-71
2021/04/15 08:27:47;;;;;;;7.97;4.30;;;;;;;6.44;51.54;99467.16;5015907;28;20038;-70
2021/04/15 08:30:31;;;;;;;8.48;4.65;;;;;;;6.57;50.84;99461.00;5023502;28;20029;-70
2021/04/15 08:33:08;;;;;;;6.30;4.22;;;;;;;6.55;50.73;99462.78;5020123;28;20429;-71
2021/04/15 08:35:39;;;;;;;;;;;;;;;7.11;48.62;99457.94;5026277;28;20061;-71
2021/04/15 08:38:33;;;;;;;9.05;4.45;;;;;;;7.68;46.80;99454.69;5013778;28;19917;-71
2021/04/15 08:41:14;;;;;;;6.35;3.85;;;;;;;7.92;44.79;99453.53;5013615;28;20049;-71
2021/04/15 08:44:05;;;;;;;5.95;3.45;;;;;;;8.18;44.31;99449.69;5010804;28;20034;-71
2021/04/15 08:46:41;;;;;;;6.28;3.47;;;;;;;7.11;46.60;99442.31;5008549;28;20040;-71
2021/04/15 08:49:33;;;;;;;6.70;3.60;;;;;;;7.69;45.25;99453.81;5021694;28;20546;-71
2021/04/15 08:52:40;;;;;;;7.88;3.75;;;;;;;7.12;45.75;99449.25;5030396;28;20137;-70
2021/04/15 08:55:29;;;;;;;5.32;3.80;;;;;;;7.17;46.02;99453.56;5042208;28;20149;-71
2021/04/15 08:58:32;;;;;;;6.60;3.60;;;;;;;7.30;45.00;99447.34;5021233;28;20022;-71
2021/04/15 09:01:04;;;;;;;6.32;3.28;;;;;;;7.24;45.55;99451.72;5026779;28;20533;-71
2021/04/15 09:03:41;;;;;;;4.35;3.10;;;;;;;7.39;45.03;99448.97;5015903;28;20409;-71
2021/04/15 09:06:27;;;;;;;7.07;3.30;;;;;;;7.56;45.16;99441.81;5025037;28;20057;-72
2021/04/15 09:09:04;;;;;;;5.95;3.67;;;;;;;7.16;44.97;99438.81;5028599;28;20664;-71
2021/04/15 09:11:46;;;;;;;4.13;2.92;;;;;;;8.12;42.35;99435.84;5031620;28;20037;-71
2021/04/15 09:14:49;;;;;;;5.75;3.35;;;;;;;7.53;44.13;99430.56;5024197;28;20049;-73
2021/04/15 09:17:38;;;;;;;4.97;2.80;;;;;;;8.01;43.71;99437.75;5022277;28;20029;-71
2021/04/15 09:20:18;;;;;;;4.82;3.10;;;;;;;7.44;42.64;99433.31;5032861;28;20037;-70
2021/04/15 09:22:50;;;;;;;5.82;3.20;;;;;;;7.38;43.57;99435.09;5019902;28;20025;-70
2021/04/15 09:25:27;;;;;;;5.55;2.97;;;;;;;6.97;43.86;99440.72;5035556;28;20029;-71
2021/04/15 09:27:58;;;;;;;4.95;3.03;;;;;;;6.61;44.59;99436.72;5025472;28;20033;-69
2021/04/15 09:30:39;;;;;;;6.35;2.92;;;;;;;6.22;43.70;99435.28;5029554;28;20025;-71
2021/04/15 09:33:13;;;;;;;4.32;2.50;;;;;;;6.69;44.50;99439.25;5014387;28;20108;-67
2021/04/15 09:36:04;;;;;;;3.53;2.47;;;;;;;6.52;44.11;99434.22;5011101;28;20430;-70
2021/04/15 09:38:57;;;;;;;4.13;2.28;;;;;;;6.67;44.35;99435.81;5020954;28;20479;-71
2021/04/15 09:41:31;;;;;;;4.85;2.25;;;;;;;6.66;43.51;99426.28;5035449;28;20061;-69
2021/04/15 09:44:15;;;;;;;4.35;2.45;;;;;;;6.97;42.69;99424.28;5025434;28;20477;-70
2021/04/15 09:46:56;;;;;;;6.47;2.65;;;;;;;6.64;42.52;99412.44;5024998;28;20036;-70
2021/04/15 09:49:38;;;;;;;4.45;2.50;;;;;;;7.04;42.58;99423.31;5015819;28;20081;-72
2021/04/15 09:52:12;;;;;;;6.78;2.85;;;;;;;7.05;39.74;99417.22;5027256;28;20443;-72
2021/04/15 09:55:05;;;;;;;4.35;2.40;;;;;;;7.31;41.60;99420.44;5031642;28;20026;-72
2021/04/15 09:57:59;;;;;;;7.03;2.97;;;;;;;8.91;38.14;99419.84;5039203;28;20487;-71
2021/04/15 10:00:29;;;;;;;3.63;2.20;;;;;;;10.46;35.64;99407.03;5024155;28;20065;-72
2021/04/15 10:03:09;;;;;;;4.90;2.30;;;;;;;10.98;32.71;99405.72;5009231;28;20096;-71
2021/04/15 10:05:53;;;;;;;4.07;2.22;;;;;;;12.08;29.94;99384.22;5042999;28;20037;-71
2021/04/15 10:08:37;;;;;;;2.95;2.03;;;;;;;12.51;29.00;99396.84;5027297;28;20040;-70
2021/04/15 10:11:24;;;;;;;5.05;2.40;;;;;;;11.76;30.86;99390.47;5017511;28;20033;-72
2021/04/15 10:14:14;;;;;;;4.65;2.53;;;;;;;10.40;33.16;99403.69;5024456;28;20495;-71
2021/04/15 10:17:19;;;;;;;5.28;2.70;;;;;;;10.12;38.41;99401.69;5020998;28;20510;-72
2021/04/15 10:20:13;;;;;;;7.28;2.90;;;;;;;9.28;41.76;99418.28;5021775;28;20060;-71
2021/04/15 10:23:02;;;;;;;5.38;3.30;;;;;;;7.75;46.40;99412.06;5018772;28;20036;-72
2021/04/15 10:25:33;;;;;;;4.68;2.95;;;;;;;7.49;46.93;99415.88;5024947;28;20091;-72
2021/04/15 10:28:35;;;;;;;5.80;2.90;;;;;;;6.38;49.37;99422.19;5016221;28;20037;-71
2021/04/15 10:31:20;;;;;;;4.03;2.63;;;;;;;6.18;50.42;99430.97;5012538;28;20079;-72
2021/04/15 10:34:24;;;;;;;3.53;2.50;;;;;;;7.07;48.90;99428.50;5013018;28;20056;-71
2021/04/15 10:36:52;;;;;;;5.55;3.28;;;;;;;6.31;48.94;99431.75;5009190;28;20041;-71
2021/04/15 10:39:49;;;;;;;6.38;2.78;;;;;;;6.54;49.55;99424.66;5018029;28;20036;-72
2021/04/15 10:42:36;;;;;;;4.63;2.72;;;;;;;6.96;48.56;99430.34;5025746;28;20105;-70
2021/04/15 10:45:42;;;;;;;5.43;2.60;;;;;;;7.64;49.04;99426.94;5015959;28;20044;-72
2021/04/15 10:48:20;;;;;;;4.25;2.88;;;;;;;7.69;49.51;99417.34;5012137;28;20045;-72
2021/04/15 10:50:54;;;;;;;3.70;2.63;;;;;;;8.20;48.22;99424.47;5024229;28;20438;-71
2021/04/15 10:53:38;;;;;;;4.25;2.83;;;;;;;6.77;48.73;99423.59;5034539;28;20575;-71
2021/04/15 10:56:33;;;;;;;5.07;3.28;;;;;;;7.87;48.28;99423.19;5036865;28;20043;-71
2021/04/15 10:59:01;;;;;;;5.05;2.70;;;;;;;8.49;45.25;99422.31;5028547;28;20076;-71
2021/04/15 11:01:40;;;;;;;4.40;2.60;;;;;;;8.32;44.97;99419.97;5019303;28;20600;-71
2021/04/15 11:04:08;;;;;;;6.22;2.88;;;;;;;8.10;43.56;99413.31;5028390;28;20445;-72
2021/04/15 11:07:05;;;;;;;4.32;2.60;;;;;;;7.52;44.90;99413.22;5028721;28;20033;-72
2021/04/15 11:09:33;;;;;;;;;;;;;;;6.64;46.33;99425.44;5024690;28;20066;-71
2021/04/15 11:12:07;;;;;;;5.95;2.65;;;;;;;8.51;43.26;99415.34;5023620;28;20457;-71
2021/04/15 11:14:52;;;;;;;5.60;2.63;;;;;;;8.36;44.56;99415.56;5021675;28;20033;-72
2021/04/15 11:17:32;;;;;;;4.13;2.80;;;;;;;8.41;45.08;99412.00;5009733;28;20033;-72
2021/04/15 11:20:23;;;;;;;4.15;2.30;;;;;;;7.89;45.06;99414.50;5016758;28;20184;-72
2021/04/15 11:23:27;;;;;;;3.42;2.30;;;;;;;8.38;43.77;99392.97;5019357;28;20018;-71
2021/04/15 11:25:54;;;;;;;6.47;2.58;;;;;;;7.55;45.50;99401.06;5019300;28;20037;-71
2021/04/15 11:28:23;;;;;;;4.65;2.88;;;;;;;7.76;45.49;99408.59;5043965;28;20482;-72
2021/04/15 11:30:50;;;;;;;4.00;2.65;;;;;;;9.70;43.30;99394.81;5020143;28;20041;-72
2021/04/15 11:33:34;;;;;;;;;;;;;;;11.11;40.55;99387.91;5019978;28;20394;-73
2021/04/15 11:36:22;;;;;;;5.22;2.95;;;;;;;8.09;42.94;99386.44;5019422;28;19917;-70
2021/04/15 11:39:05;;;;;;;4.10;2.60;;;;;;;11.17;41.36;99380.75;5020800;28;20471;-72
2021/04/15 11:41:54;;;;;;;3.72;2.45;;;;;;;13.90;35.87;99371.75;5015220;28;20038;-71
2021/04/15 11:44:27;;;;;;;3.85;2.55;;;;;;;13.76;32.20;99364.38;5029229;28;20037;-70
2021/04/15 11:46:57;;;;;;;7.07;3.00;;;;;;;14.84;34.25;99362.63;5026218;28;20056;-70
2021/04/15 11:49:29;;;;;;;4.70;2.28;;;;;;;16.18;30.50;99367.13;5033870;28;20033;-71
2021/04/15 11:52:21;;;;;;;5.43;2.45;;;;;;;16.70;26.02;99346.06;5030808;28;20021;-71
2021/04/15 11:54:49;;;;;;;6.13;2.80;;;;;;;13.18;30.31;99353.41;5033240;28;20139;-71
2021/04/15 11:57:24;;;;;;;4.18;2.50;;;;;;;12.45;34.02;99366.41;5040004;28;20025;-71
2021/04/15 12:00:07;;;;;;;4.00;2.55;;;;;;;13.63;32.34;99356.09;5029407;28;20029;-71
2021/04/15 12:02:52;;;;;;;4.03;2.72;;;;;;;14.45;30.06;99349.38;5027708;28;20025;-71
2021/04/15 12:05:27;;;;;;;4.55;2.75;;;;;;;12.91;34.31;99363.09;5018209;28;20025;-71
2021/04/15 12:07:57;;;;;;;6.20;2.38;;;;;;;13.44;34.04;99370.00;5010839;28;20057;-71
2021/04/15 12:10:26;;;;;;;3.40;2.35;;;;;;;13.20;34.16;99366.47;5011639;28;20048;-70
2021/04/15 12:12:56;;;;;;;3.33;2.33;;;;;;;11.43;35.90;99366.94;5025720;28;20033;-70
2021/04/15 12:15:28;;;;;;;3.03;2.30;;;;;;;14.11;30.91;99352.47;5021526;28;20068;-71
2021/04/15 12:17:57;;;;;;;3.35;2.40;;;;;;;16.51;27.00;99339.03;5025148;28;20030;-72
2021/04/15 12:20:35;;;;;;;4.70;2.60;;;;;;;14.32;28.08;99345.50;5018453;28;20411;-71
2021/04/15 12:23:42;;;;;;;4.07;2.20;;;;;;;15.20;28.80;99341.75;5017021;28;20057;-71
2021/04/15 12:26:26;;;;;;;2.92;2.10;;;;;;;18.68;23.82;99319.34;5025371;28;20818;-72
2021/04/15 12:29:01;;;;;;;3.90;2.17;;;;;;;16.26;26.67;99327.13;5016452;28;20029;-71